createdAt,value
2023-04-05T00:01:14.862Z,100693.38
2023-04-05T00:03:44.607Z,100694.16
2023-04-05T00:06:16.854Z,100684.88
2023-04-05T00:08:50.027Z,100681.19
2023-04-05T00:11:18.720Z,100678.97
2023-04-05T00:13:46.796Z,100682.03
2023-04-05T00:16:15.030Z,100672.09
2023-04-05T00:18:50.021Z,100672.09
2023-04-05T00:21:18.333Z,100672.09
2023-04-05T00:23:46.482Z,100665.84
2023-04-05T00:26:14.499Z,100665.41
2023-04-05T00:28:48.534Z,100661.00
2023-04-05T00:31:16.729Z,100660.28
2023-04-05T00:33:46.697Z,100659.31
2023-04-05T00:36:16.446Z,100666.41
2023-04-05T00:38:45.259Z,100668.09
2023-04-05T00:41:13.904Z,100671.16
2023-04-05T00:43:42.664Z,100665.78
2023-04-05T00:46:10.882Z,100665.09
2023-04-05T00:48:39.347Z,100652.28
2023-04-05T00:51:11.654Z,100661.25
2023-04-05T00:53:40.929Z,100657.00
2023-04-05T00:56:10.275Z,100649.56
2023-04-05T00:58:38.408Z,100658.38
2023-04-05T01:01:18.622Z,100643.34
2023-04-05T01:03:52.302Z,100652.97
2023-04-05T01:06:27.598Z,100643.88
2023-04-05T01:09:01.576Z,100645.88
2023-04-05T01:11:32.412Z,100639.50
2023-04-05T01:14:00.969Z,100624.97
2023-04-05T01:16:29.837Z,100625.84
2023-04-05T01:18:58.567Z,100626.69
2023-04-05T01:21:43.802Z,100622.28
2023-04-05T01:24:18.416Z,100624.69
2023-04-05T01:26:57.432Z,100620.97
2023-04-05T01:29:44.284Z,100622.81
2023-04-05T01:32:19.477Z,100617.59
2023-04-05T01:34:51.434Z,100615.22
2023-04-05T01:37:21.564Z,100617.28
2023-04-05T01:39:50.731Z,100613.91
2023-04-05T01:42:24.433Z,100617.44
2023-04-05T01:44:52.853Z,100614.25
2023-04-05T01:47:23.039Z,100606.00
2023-04-05T01:49:51.211Z,100611.88
2023-04-05T01:52:19.256Z,100610.72
2023-04-05T01:54:47.323Z,100603.22
2023-04-05T01:57:15.663Z,100601.09
2023-04-05T01:59:43.884Z,100604.31
2023-04-05T02:02:12.194Z,100602.31
2023-04-05T02:04:42.488Z,100591.50
2023-04-05T02:07:11.287Z,100590.34
2023-04-05T02:09:39.377Z,100580.56
2023-04-05T02:12:07.409Z,100578.69
2023-04-05T02:14:35.717Z,100563.53
2023-04-05T02:17:03.978Z,100558.47
2023-04-05T02:19:40.920Z,100565.75
2023-04-05T02:22:10.662Z,100557.97
2023-04-05T02:24:38.824Z,100561.00
2023-04-05T02:27:07.574Z,100558.31
2023-04-05T02:29:36.062Z,100549.72
2023-04-05T02:32:04.111Z,100542.28
2023-04-05T02:34:33.688Z,100541.97
2023-04-05T02:37:02.043Z,100540.78
2023-04-05T02:39:31.946Z,100545.88
2023-04-05T02:42:00.443Z,100539.13
2023-04-05T02:44:28.498Z,100540.13
2023-04-05T02:46:57.121Z,100535.22
2023-04-05T02:49:30.908Z,100536.44
2023-04-05T02:52:01.897Z,100536.25
2023-04-05T02:54:31.692Z,100531.69
2023-04-05T02:57:03.571Z,100529.66
2023-04-05T02:59:41.152Z,100535.06
2023-04-05T03:02:10.249Z,100524.59
2023-04-05T03:04:38.855Z,100526.81
2023-04-05T03:07:08.051Z,100529.66
2023-04-05T03:09:41.225Z,100529.66
2023-04-05T03:12:11.493Z,100524.28
2023-04-05T03:14:42.589Z,100535.44
2023-04-05T03:17:14.798Z,100526.13
2023-04-05T03:19:46.793Z,100525.13
2023-04-05T03:22:19.459Z,100525.66
2023-04-05T03:24:49.074Z,100525.66
2023-04-05T03:27:19.978Z,100528.34
2023-04-05T03:30:17.532Z,100531.41
2023-04-05T03:33:01.496Z,100533.94
2023-04-05T03:35:43.690Z,100522.50
2023-04-05T03:38:13.353Z,100525.31
2023-04-05T03:40:57.210Z,100523.66
2023-04-05T03:43:26.042Z,100523.31
2023-04-05T03:45:54.246Z,100522.63
2023-04-05T03:48:22.604Z,100512.53
2023-04-05T03:50:51.583Z,100521.63
2023-04-05T03:53:22.002Z,100519.91
2023-04-05T03:55:55.859Z,100513.34
2023-04-05T03:58:48.267Z,100510.66
2023-04-05T04:01:18.585Z,100513.34
2023-04-05T04:03:46.563Z,100502.72
2023-04-05T04:06:17.887Z,100508.81
2023-04-05T04:08:47.674Z,100507.44
2023-04-05T04:11:16.196Z,100503.44
2023-04-05T04:13:44.645Z,100495.78
2023-04-05T04:16:33.397Z,100491.75
2023-04-05T04:19:20.000Z,100484.19
2023-04-05T04:22:10.381Z,100488.06
2023-04-05T04:25:18.956Z,100483.50
2023-04-05T04:28:19.748Z,100481.81
2023-04-05T04:31:21.659Z,100479.78
2023-04-05T04:34:14.849Z,100476.44
2023-04-05T04:37:04.079Z,100474.94
2023-04-05T04:40:04.368Z,100473.72
2023-04-05T04:42:44.500Z,100470.88
2023-04-05T04:45:38.068Z,100471.91
2023-04-05T04:48:26.650Z,100461.94
2023-04-05T04:51:14.010Z,100461.28
2023-04-05T04:53:42.302Z,100453.16
2023-04-05T04:56:10.857Z,100457.22
2023-04-05T04:58:39.136Z,100453.84
2023-04-05T05:01:10.318Z,100459.75
2023-04-05T05:03:39.468Z,100454.38
2023-04-05T05:06:08.226Z,100458.91
2023-04-05T05:08:38.575Z,100466.53
2023-04-05T05:11:07.953Z,100454.03
2023-04-05T05:13:36.489Z,100458.94
2023-04-05T05:16:05.772Z,100467.38
2023-04-05T05:18:33.912Z,100459.25
2023-04-05T05:21:02.129Z,100455.41
2023-04-05T05:23:30.310Z,100459.28
2023-04-05T05:26:02.792Z,100453.19
2023-04-05T05:28:31.007Z,100451.19
2023-04-05T05:30:59.119Z,100451.50
2023-04-05T05:33:27.214Z,100451.84
2023-04-05T05:35:55.635Z,100455.91
2023-04-05T05:38:23.752Z,100446.13
2023-04-05T05:40:56.234Z,100456.91
2023-04-05T05:43:25.893Z,100457.09
2023-04-05T05:45:53.990Z,100452.22
2023-04-05T05:48:22.030Z,100453.56
2023-04-05T05:50:50.650Z,100464.53
2023-04-05T05:53:19.324Z,100464.03
2023-04-05T05:55:47.754Z,100464.69
2023-04-05T05:58:17.661Z,100467.09
2023-04-05T06:00:49.909Z,100461.00
2023-04-05T06:03:19.365Z,100462.00
2023-04-05T06:05:52.027Z,100465.41
2023-04-05T06:08:20.177Z,100455.25
2023-04-05T06:10:48.345Z,100456.97
2023-04-05T06:13:16.416Z,100453.91
2023-04-05T06:15:44.570Z,100457.63
2023-04-05T06:18:14.706Z,100451.91
2023-04-05T06:20:44.655Z,100446.50
2023-04-05T06:23:12.827Z,100451.56
2023-04-05T06:25:41.280Z,100444.78
2023-04-05T06:28:09.519Z,100445.63
2023-04-05T06:30:37.759Z,100447.00
2023-04-05T06:33:06.434Z,100437.34
2023-04-05T06:35:36.317Z,100444.28
2023-04-05T06:38:04.470Z,100445.81
2023-04-05T06:40:32.485Z,100442.59
2023-04-05T06:43:00.657Z,100437.72
2023-04-05T06:45:32.167Z,100439.25
2023-04-05T06:48:00.679Z,100441.78
2023-04-05T06:50:29.374Z,100444.78
2023-04-05T06:52:59.110Z,100440.25
2023-04-05T06:55:27.775Z,100442.44
2023-04-05T06:57:55.817Z,100446.50
2023-04-05T07:00:24.070Z,100447.19
2023-04-05T07:02:52.500Z,100438.75
2023-04-05T07:05:20.694Z,100438.75
2023-04-05T07:07:49.036Z,100437.56
2023-04-05T07:10:18.750Z,100436.34
2023-04-05T07:12:46.978Z,100433.66
2023-04-05T07:15:15.221Z,100441.94
2023-04-05T07:17:43.393Z,100447.00
2023-04-05T07:20:12.526Z,100448.69
2023-04-05T07:22:40.658Z,100447.19
2023-04-05T07:25:10.610Z,100451.06
2023-04-05T07:27:40.845Z,100447.53
2023-04-05T07:30:09.791Z,100442.47
2023-04-05T07:32:38.007Z,100436.19
2023-04-05T07:35:06.961Z,100438.72
2023-04-05T07:37:35.002Z,100435.69
2023-04-05T07:40:03.823Z,100437.19
2023-04-05T07:42:32.168Z,100429.44
2023-04-05T07:45:01.774Z,100430.63
2023-04-05T07:47:29.927Z,100433.66
2023-04-05T07:49:58.190Z,100428.94
2023-04-05T07:52:26.348Z,100421.53
2023-04-05T07:54:54.906Z,100425.91
2023-04-05T07:57:23.070Z,100423.19
2023-04-05T07:59:52.830Z,100420.84
2023-04-05T08:02:22.746Z,100421.13
2023-04-05T08:04:51.063Z,100421.13
2023-04-05T08:07:19.330Z,100419.28
2023-04-05T08:09:47.339Z,100425.53
2023-04-05T08:12:15.559Z,100423.47
2023-04-05T08:14:43.950Z,100420.28
2023-04-05T08:17:12.138Z,100417.06
2023-04-05T08:19:42.417Z,100424.47
2023-04-05T08:22:10.433Z,100411.28
2023-04-05T08:24:38.473Z,100417.34
2023-04-05T08:27:06.560Z,100409.25
2023-04-05T08:29:34.711Z,100407.03
2023-04-05T08:32:02.973Z,100410.38
2023-04-05T08:34:31.465Z,100408.53
2023-04-05T08:37:01.540Z,100402.25
2023-04-05T08:39:29.702Z,100409.53
2023-04-05T08:42:03.592Z,100398.16
2023-04-05T08:44:32.354Z,100395.66
2023-04-05T08:47:01.167Z,100387.34
2023-04-05T08:49:29.552Z,100384.81
2023-04-05T08:51:57.841Z,100385.66
2023-04-05T08:54:27.637Z,100379.38
2023-04-05T08:56:56.685Z,100377.31
2023-04-05T08:59:25.612Z,100376.59
2023-04-05T09:01:54.020Z,100372.84
2023-04-05T09:04:23.467Z,100381.25
2023-04-05T09:06:53.143Z,100387.16
2023-04-05T09:09:22.170Z,100386.94
2023-04-05T09:11:51.972Z,100385.25
2023-04-05T09:14:20.904Z,100385.91
2023-04-05T09:16:49.397Z,100382.19
2023-04-05T09:19:18.994Z,100376.72
2023-04-05T09:22:00.661Z,100380.56
2023-04-05T09:24:33.345Z,100375.16
2023-04-05T09:27:16.159Z,100371.63
2023-04-05T09:29:48.425Z,100370.53
2023-04-05T09:32:18.458Z,100364.31
2023-04-05T09:34:47.644Z,100368.19
2023-04-05T09:37:23.416Z,100364.97
2023-04-05T09:39:52.702Z,100362.03
2023-04-05T09:42:24.145Z,100365.03
2023-04-05T09:44:56.341Z,100363.94
2023-04-05T09:47:27.766Z,100359.16
2023-04-05T09:49:59.556Z,100369.72
2023-04-05T09:52:28.946Z,100365.72
2023-04-05T09:54:58.145Z,100363.09
2023-04-05T09:57:29.690Z,100371.22
2023-04-05T09:59:57.897Z,100363.84
2023-04-05T10:02:27.312Z,100360.34
2023-04-05T10:04:55.454Z,100358.44
2023-04-05T10:07:23.598Z,100358.44
2023-04-05T10:09:51.785Z,100360.84
2023-04-05T10:12:25.474Z,100356.09
2023-04-05T10:14:54.989Z,100358.16
2023-04-05T10:17:25.789Z,100359.47
2023-04-05T10:19:58.577Z,100363.56
2023-04-05T10:22:30.919Z,100363.56
2023-04-05T10:25:01.574Z,100362.28
2023-04-05T10:27:32.521Z,100368.22
2023-04-05T10:30:06.640Z,100370.09
2023-04-05T10:32:38.829Z,100364.31
2023-04-05T10:35:11.222Z,100371.78
2023-04-05T10:37:43.946Z,100375.44
2023-04-05T10:40:14.654Z,100369.28
2023-04-05T10:42:44.472Z,100372.53
2023-04-05T10:45:18.198Z,100369.81
2023-04-05T10:47:50.292Z,100375.50
2023-04-05T10:50:22.998Z,100377.31
2023-04-05T10:52:52.354Z,100368.75
2023-04-05T10:55:20.718Z,100374.16
2023-04-05T10:57:50.591Z,100378.84
2023-04-05T11:00:21.048Z,100384.66
2023-04-05T11:02:50.266Z,100376.69
2023-04-05T11:05:32.581Z,100375.69
2023-04-05T11:08:01.801Z,100376.63
2023-04-05T11:10:30.412Z,100373.44
2023-04-05T11:13:09.282Z,100373.91
2023-04-05T11:15:39.191Z,100374.38
2023-04-05T11:18:11.553Z,100374.47
2023-04-05T11:20:44.144Z,100371.47
2023-04-05T11:23:13.258Z,100361.47
2023-04-05T11:25:42.347Z,100358.84
2023-04-05T11:28:10.696Z,100347.44
2023-04-05T11:30:51.643Z,100351.25
2023-04-05T11:33:38.582Z,100349.28
2023-04-05T11:36:07.112Z,100355.31
2023-04-05T11:38:35.539Z,100362.00
2023-04-05T11:41:07.774Z,100351.44
2023-04-05T11:43:38.386Z,100350.13
2023-04-05T11:46:08.270Z,100353.97
2023-04-05T11:48:37.074Z,100369.81
2023-04-05T11:51:08.562Z,100360.47
2023-04-05T11:53:36.748Z,100353.63
2023-04-05T11:56:08.780Z,100341.31
2023-04-05T11:58:38.080Z,100344.78
2023-04-05T12:01:08.363Z,100343.38
2023-04-05T12:03:36.927Z,100338.53
2023-04-05T12:06:06.389Z,100342.56
2023-04-05T12:08:42.492Z,100340.94
2023-04-05T12:11:11.758Z,100333.19
2023-04-05T12:13:40.692Z,100330.66
2023-04-05T12:16:11.052Z,100332.41
2023-04-05T12:18:39.682Z,100337.19
2023-04-05T12:21:09.247Z,100332.41
2023-04-05T12:23:38.516Z,100337.03
2023-04-05T12:26:08.306Z,100335.44
2023-04-05T12:28:52.790Z,100328.38
2023-04-05T12:31:36.364Z,100323.63
2023-04-05T12:34:06.560Z,100320.25
2023-04-05T12:36:34.974Z,100325.03
2023-04-05T12:39:07.761Z,100318.81
2023-04-05T12:41:37.270Z,100321.44
2023-04-05T12:44:06.795Z,100315.91
2023-04-05T12:46:41.737Z,100309.91
2023-04-05T12:49:13.848Z,100317.94
2023-04-05T12:51:46.302Z,100305.47
2023-04-05T12:54:15.637Z,100296.09
2023-04-05T12:56:43.756Z,100296.16
2023-04-05T12:59:12.385Z,100292.38
2023-04-05T13:01:40.807Z,100290.66
2023-04-05T13:04:16.050Z,100287.84
2023-04-05T13:06:47.930Z,100284.56
2023-04-05T13:09:16.507Z,100280.94
2023-04-05T13:11:44.565Z,100273.00
2023-04-05T13:14:12.647Z,100262.81
2023-04-05T13:16:40.726Z,100263.03
2023-04-05T13:19:08.860Z,100266.81
2023-04-05T13:21:37.224Z,100277.13
2023-04-05T13:24:07.418Z,100282.59
2023-04-05T13:26:36.030Z,100277.97
2023-04-05T13:29:05.556Z,100272.97
2023-04-05T13:31:33.947Z,100273.91
2023-04-05T13:34:02.224Z,100289.88
2023-04-05T13:36:31.235Z,100283.50
2023-04-05T13:38:59.635Z,100273.47
2023-04-05T13:41:29.084Z,100262.97
2023-04-05T13:43:57.744Z,100268.34
2023-04-05T13:46:26.981Z,100258.34
2023-04-05T13:48:55.007Z,100266.97
2023-04-05T13:51:23.365Z,100281.66
2023-04-05T13:53:51.393Z,100270.78
2023-04-05T13:56:19.377Z,100266.88
2023-04-05T13:58:48.943Z,100263.38
2023-04-05T14:01:17.311Z,100266.31
2023-04-05T14:03:45.606Z,100264.38
2023-04-05T14:06:14.147Z,100274.66
2023-04-05T14:08:42.345Z,100268.91
2023-04-05T14:11:10.502Z,100270.16
2023-04-05T14:13:38.943Z,100275.56
2023-04-05T14:16:09.620Z,100282.44
2023-04-05T14:18:37.758Z,100286.44
2023-04-05T14:21:05.827Z,100299.66
2023-04-05T14:23:33.980Z,100290.94
2023-04-05T14:26:02.412Z,100294.06
2023-04-05T14:28:31.057Z,100299.03
2023-04-05T14:30:59.855Z,100298.19
2023-04-05T14:33:29.326Z,100299.47
2023-04-05T14:35:57.498Z,100298.66
2023-04-05T14:38:26.217Z,100306.31
2023-04-05T14:40:54.257Z,100300.69
2023-04-05T14:43:31.176Z,100298.31
2023-04-05T14:45:59.731Z,100299.13
2023-04-05T14:48:30.491Z,100299.72
2023-04-05T14:50:58.833Z,100294.81
2023-04-05T14:53:27.035Z,100288.22
2023-04-05T14:55:55.311Z,100296.66
2023-04-05T14:58:23.630Z,100299.41
2023-04-05T15:00:52.137Z,100285.94
2023-04-05T15:03:20.344Z,100286.75
2023-04-05T15:05:50.115Z,100291.47
2023-04-05T15:08:18.168Z,100291.00
2023-04-05T15:10:46.571Z,100298.25
2023-04-05T15:13:15.202Z,100295.78
2023-04-05T15:15:43.302Z,100266.47
2023-04-05T15:18:11.668Z,100255.59
2023-04-05T15:20:39.865Z,100245.44
2023-04-05T15:23:09.666Z,100228.69
2023-04-05T15:25:37.766Z,100232.09
2023-04-05T15:28:07.037Z,100226.72
2023-04-05T15:30:35.367Z,100224.75
2023-04-05T15:33:03.701Z,100224.56
2023-04-05T15:35:33.705Z,100237.00
2023-04-05T15:38:01.973Z,100234.41
2023-04-05T15:40:31.566Z,100220.59
2023-04-05T15:43:00.150Z,100228.97
2023-04-05T15:45:28.494Z,100224.38
2023-04-05T15:47:56.629Z,100231.94
2023-04-05T15:50:24.692Z,100241.00
2023-04-05T15:52:53.109Z,100239.50
2023-04-05T15:55:21.344Z,100233.63
2023-04-05T15:57:54.736Z,100218.97
2023-04-05T16:00:23.189Z,100221.16
2023-04-05T16:02:52.857Z,100224.53
2023-04-05T16:05:23.197Z,100212.03
2023-04-05T16:07:51.663Z,100224.19
2023-04-05T16:10:19.732Z,100225.25
2023-04-05T16:12:47.817Z,100237.22
2023-04-05T16:15:17.712Z,100247.69
2023-04-05T16:17:45.784Z,100238.25
2023-04-05T16:20:13.953Z,100242.81
2023-04-05T16:22:42.427Z,100240.53
2023-04-05T16:25:10.445Z,100230.03
2023-04-05T16:27:38.897Z,100236.75
2023-04-05T16:30:07.694Z,100232.38
2023-04-05T16:32:37.203Z,100236.75
2023-04-05T16:35:06.109Z,100231.31
2023-04-05T16:37:34.245Z,100223.72
2023-04-05T16:40:03.109Z,100215.97
2023-04-05T16:42:31.332Z,100206.56
2023-04-05T16:44:59.398Z,100209.09
2023-04-05T16:47:27.445Z,100207.84
2023-04-05T16:49:57.000Z,100210.66
2023-04-05T16:52:25.265Z,100220.94
2023-04-05T16:54:53.519Z,100222.25
2023-04-05T16:57:21.721Z,100220.72
2023-04-05T16:59:49.760Z,100190.34
2023-04-05T17:02:18.149Z,100177.72
2023-04-05T17:04:46.598Z,100164.69
2023-04-05T17:07:16.191Z,100155.63
2023-04-05T17:09:45.127Z,100155.41
2023-04-05T17:12:13.845Z,100144.59
2023-04-05T17:14:41.907Z,100166.28
2023-04-05T17:17:10.057Z,100159.72
2023-04-05T17:19:39.034Z,100166.22
2023-04-05T17:22:07.269Z,100160.38
2023-04-05T17:24:37.312Z,100172.13
2023-04-05T17:27:06.152Z,100167.06
2023-04-05T17:29:34.222Z,100169.53
2023-04-05T17:32:03.883Z,100149.97
2023-04-05T17:34:32.650Z,100157.09
2023-04-05T17:37:00.930Z,100156.34
2023-04-05T17:39:29.130Z,100165.56
2023-04-05T17:41:58.928Z,100167.09
2023-04-05T17:44:27.453Z,100178.25
2023-04-05T17:47:08.061Z,100171.78
2023-04-05T17:49:38.037Z,100165.84
2023-04-05T17:52:08.922Z,100164.25
2023-04-05T17:54:38.645Z,100163.88
2023-04-05T17:57:15.753Z,100171.97
2023-04-05T17:59:45.370Z,100176.47
2023-04-05T18:02:14.647Z,100176.22
2023-04-05T18:04:42.824Z,100177.06
2023-04-05T18:07:11.901Z,100190.25
2023-04-05T18:09:42.399Z,100196.03
2023-04-05T18:12:13.556Z,100215.88
2023-04-05T18:14:43.762Z,100211.75
2023-04-05T18:17:13.443Z,100205.69
2023-04-05T18:19:42.372Z,100199.66
2023-04-05T18:22:10.657Z,100207.78
2023-04-05T18:24:40.679Z,100201.31
2023-04-05T18:27:11.683Z,100206.19
2023-04-05T18:29:41.535Z,100210.22
2023-04-05T18:32:10.193Z,100213.84
2023-04-05T18:34:38.323Z,100210.47
2023-04-05T18:37:06.387Z,100209.84
2023-04-05T18:39:34.603Z,100225.06
2023-04-05T18:42:03.217Z,100214.50
2023-04-05T18:44:31.639Z,100226.97
2023-04-05T18:47:01.298Z,100232.72
2023-04-05T18:49:29.416Z,100235.63
2023-04-05T18:51:57.748Z,100239.53
2023-04-05T18:54:25.950Z,100247.50
2023-04-05T18:56:54.049Z,100258.41
2023-04-05T18:59:22.439Z,100257.84
2023-04-05T19:01:50.822Z,100267.19
2023-04-05T19:04:20.374Z,100265.50
2023-04-05T19:06:48.778Z,100268.56
2023-04-05T19:09:18.310Z,100268.13
2023-04-05T19:11:46.348Z,100281.34
2023-04-05T19:14:14.501Z,100277.63
2023-04-05T19:16:42.825Z,100285.94
2023-04-05T19:19:10.897Z,100292.56
2023-04-05T19:21:40.660Z,100291.06
2023-04-05T19:24:09.961Z,100282.97
2023-04-05T19:26:38.088Z,100275.72
2023-04-05T19:29:07.091Z,100280.66
2023-04-05T19:31:37.129Z,100284.75
2023-04-05T19:34:07.230Z,100290.53
2023-04-05T19:36:35.624Z,100284.16
2023-04-05T19:39:05.325Z,100276.44
2023-04-05T19:41:34.162Z,100269.97
2023-04-05T19:44:02.506Z,100259.97
2023-04-05T19:46:31.222Z,100274.50
2023-04-05T19:49:11.542Z,100280.66
2023-04-05T19:51:40.826Z,100285.09
2023-04-05T19:54:15.184Z,100285.44
2023-04-05T19:56:45.365Z,100277.84
2023-04-05T19:59:29.364Z,100273.66
2023-04-05T20:01:58.983Z,100283.78
2023-04-05T20:04:29.381Z,100297.31
2023-04-05T20:06:58.281Z,100303.78
2023-04-05T20:09:29.903Z,100302.47
2023-04-05T20:11:59.397Z,100309.88
2023-04-05T20:14:29.151Z,100305.00
2023-04-05T20:16:57.636Z,100304.19
2023-04-05T20:19:28.656Z,100302.50
2023-04-05T20:21:58.349Z,100302.50
2023-04-05T20:24:27.899Z,100307.44
2023-04-05T20:26:58.505Z,100298.16
2023-04-05T20:29:28.348Z,100305.56
2023-04-05T20:31:56.735Z,100299.50
2023-04-05T20:34:28.220Z,100301.03
2023-04-05T20:36:58.064Z,100284.97
2023-04-05T20:39:26.910Z,100292.59
2023-04-05T20:41:55.705Z,100294.47
2023-04-05T20:44:25.340Z,100295.16
2023-04-05T20:46:54.816Z,100294.66
2023-04-05T20:49:23.869Z,100302.75
2023-04-05T20:51:54.869Z,100300.22
2023-04-05T20:54:23.090Z,100294.47
2023-04-05T20:56:51.378Z,100293.47
2023-04-05T20:59:19.545Z,100294.47
2023-04-05T21:01:49.289Z,100296.53
2023-04-05T21:04:17.781Z,100287.06
2023-04-05T21:06:46.205Z,100287.59
2023-04-05T21:09:14.349Z,100277.78
2023-04-05T21:11:42.343Z,100272.91
2023-04-05T21:14:10.390Z,100274.09
2023-04-05T21:16:38.650Z,100259.75
2023-04-05T21:19:08.371Z,100264.50
2023-04-05T21:21:36.767Z,100259.59
2023-04-05T21:24:05.394Z,100257.75
2023-04-05T21:26:33.431Z,100257.59
2023-04-05T21:29:01.553Z,100265.69
2023-04-05T21:31:29.926Z,100265.53
2023-04-05T21:33:58.120Z,100262.31
2023-04-05T21:36:27.701Z,100257.25
2023-04-05T21:38:56.041Z,100265.88
2023-04-05T21:41:24.270Z,100264.16
2023-04-05T21:43:52.447Z,100269.88
2023-04-05T21:46:20.873Z,100265.69
2023-04-05T21:48:49.029Z,100263.66
2023-04-05T21:51:17.393Z,100260.59
2023-04-05T21:53:48.078Z,100261.25
2023-04-05T21:56:16.492Z,100252.81
2023-04-05T21:58:44.512Z,100240.47
2023-04-05T22:01:13.030Z,100236.41
2023-04-05T22:03:41.315Z,100237.75
2023-04-05T22:06:09.911Z,100235.22
2023-04-05T22:08:38.260Z,100227.63
2023-04-05T22:11:08.235Z,100234.19
2023-04-05T22:13:36.330Z,100229.13
2023-04-05T22:16:04.731Z,100240.13
2023-04-05T22:18:33.124Z,100247.69
2023-04-05T22:21:01.340Z,100244.16
2023-04-05T22:23:29.489Z,100244.97
2023-04-05T22:25:57.598Z,100257.25
2023-04-05T22:28:27.348Z,100253.31
2023-04-05T22:30:56.235Z,100251.25
2023-04-05T22:33:24.684Z,100259.50
2023-04-05T22:35:52.972Z,100262.47
2023-04-05T22:38:21.438Z,100250.81
2023-04-05T22:40:49.771Z,100243.91
2023-04-05T22:43:18.811Z,100230.41
2023-04-05T22:45:52.142Z,100225.97
2023-04-05T22:48:20.658Z,100222.75
2023-04-05T22:50:48.779Z,100229.41
2023-04-05T22:53:16.800Z,100241.06
2023-04-05T22:55:44.974Z,100229.56
2023-04-05T22:58:13.717Z,100225.25
2023-04-05T23:00:41.917Z,100234.31
2023-04-05T23:03:12.078Z,100238.31
2023-04-05T23:05:40.434Z,100236.34
2023-04-05T23:08:08.581Z,100231.56
2023-04-05T23:10:36.744Z,100227.88
2023-04-05T23:13:04.856Z,100227.88
2023-04-05T23:15:33.091Z,100217.06
2023-04-05T23:18:01.274Z,100228.75
2023-04-05T23:20:30.718Z,100232.59
2023-04-05T23:22:58.767Z,100243.03
2023-04-05T23:25:26.732Z,100239.50
2023-04-05T23:27:55.003Z,100244.19
2023-04-05T23:30:23.048Z,100250.28
2023-04-05T23:32:51.461Z,100243.19
2023-04-05T23:35:19.534Z,100242.03
2023-04-05T23:37:49.149Z,100240.19
2023-04-05T23:40:17.233Z,100237.81
2023-04-05T23:42:45.743Z,100241.00
2023-04-05T23:45:14.109Z,100238.66
2023-04-05T23:47:42.453Z,100240.66
2023-04-05T23:50:11.533Z,100242.66
2023-04-05T23:52:39.651Z,100248.34
2023-04-05T23:55:10.099Z,100246.66
2023-04-05T23:57:38.176Z,100249.66
